Time;durP1;ratioP1;P1;durP2;ratioP2;P2;SDS_P1;SDS_P2;PMS_P1;PMS_P2;Temp;Humidity;BMP_temperature;BMP_pressure;BME280_temperature;BME280_humidity;BME280_pressure;Samples;Min_cycle;Max_cycle;Signal;HPM_P1;HPM_P2
2022/07/01 00:01:40;;;;;;;20.17;18.88;;;;;;;-141.02;100.00;55844.97;5133583;27;20195;-78
2022/07/01 00:04:07;;;;;;;19.92;18.63;;;;;;;-141.02;100.00;55844.97;5133274;27;20641;-73
2022/07/01 00:06:34;;;;;;;19.85;18.55;;;;;;;-141.02;100.00;55844.97;5133266;27;20273;-76
2022/07/01 00:09:01;;;;;;;19.85;18.55;;;;;;;-141.02;100.00;55844.97;5133213;27;20728;-76
2022/07/01 00:11:28;;;;;;;19.90;18.60;;;;;;;-141.02;100.00;55844.97;5133190;27;20285;-72
2022/07/01 00:13:55;;;;;;;20.00;18.70;;;;;;;-141.02;100.00;55844.97;5133466;27;20196;-76
2022/07/01 00:16:22;;;;;;;19.85;18.55;;;;;;;-141.02;100.00;55844.97;5133165;27;20228;-74
2022/07/01 00:18:51;;;;;;;19.75;18.45;;;;;;;-141.02;100.00;55844.97;5133078;27;20730;-76
2022/07/01 00:21:18;;;;;;;19.50;18.25;;;;;;;-141.02;100.00;55844.97;5133364;27;20275;-73
2022/07/01 00:23:45;;;;;;;18.85;17.65;;;;;;;-141.02;77.24;82405.41;5133229;27;20243;-76
2022/07/01 00:26:12;;;;;;;18.70;17.52;;;;;;;-141.02;100.00;55844.97;5132954;27;20283;-76
2022/07/01 00:28:38;;;;;;;19.00;17.80;;;;;;;-141.02;100.00;55844.97;5133346;27;20253;-77
2022/07/01 00:31:05;;;;;;;19.15;17.95;;;;;;;-141.02;100.00;55844.97;5133148;28;20223;-77
2022/07/01 00:33:32;;;;;;;19.20;18.00;;;;;;;-141.02;100.00;55844.97;5133261;28;20235;-77
2022/07/01 00:36:01;;;;;;;19.20;18.00;;;;;;;-141.02;100.00;55844.97;5132924;28;20228;-75
2022/07/01 00:38:28;;;;;;;18.90;17.70;;;;;;;-141.02;100.00;55844.97;5133069;28;20228;-76
2022/07/01 00:40:56;;;;;;;18.73;17.63;;;;;;;-141.02;100.00;55844.97;5132878;28;20231;-77
2022/07/01 00:43:24;;;;;;;18.85;17.75;;;;;;;-141.02;100.00;55844.97;5132837;27;20196;-76
2022/07/01 00:45:51;;;;;;;18.42;17.33;;;;;;;-141.02;100.00;55844.97;5133921;28;20208;-77
2022/07/01 00:48:20;;;;;;;18.80;17.70;;;;;;;-141.02;100.00;55844.97;5133069;28;20189;-76
2022/07/01 00:50:48;;;;;;;18.30;17.20;;;;;;;-141.02;100.00;55844.97;5133009;28;20193;-76
2022/07/01 00:53:17;;;;;;;18.48;17.38;;;;;;;-141.02;100.00;55844.97;5133142;27;20192;-75
2022/07/01 00:55:44;;;;;;;18.10;17.10;;;;;;;-141.02;100.00;55844.97;5132666;28;20228;-76
2022/07/01 00:58:11;;;;;;;17.98;16.98;;;;;;;-141.02;100.00;55844.97;5133027;27;20196;-76
2022/07/01 01:00:39;;;;;;;18.10;17.10;;;;;;;-141.02;100.00;55844.97;5132937;28;20231;-76
2022/07/01 01:03:08;;;;;;;17.95;16.95;;;;;;;-141.02;100.00;55844.97;5132707;27;20196;-76
2022/07/01 01:05:35;;;;;;;18.00;17.00;;;;;;;-141.02;100.00;55844.97;5132553;28;20253;-74
2022/07/01 01:08:02;;;;;;;17.77;16.77;;;;;;;-141.02;100.00;55844.97;5132657;27;20723;-76
2022/07/01 01:10:31;;;;;;;17.77;16.77;;;;;;;-141.02;100.00;55844.97;5132593;27;20193;-77
2022/07/01 01:12:58;;;;;;;17.80;16.80;;;;;;;-141.02;100.00;55844.97;5132435;28;20254;-76
2022/07/01 01:15:27;;;;;;;17.70;16.70;;;;;;;-141.02;100.00;55844.97;5132537;27;20247;-76
2022/07/01 01:17:54;;;;;;;17.55;16.55;;;;;;;-141.02;100.00;55844.97;5132419;28;20188;-76
2022/07/01 01:20:22;;;;;;;18.10;17.10;;;;;;;-141.02;100.00;55844.97;5132514;28;20232;-77
2022/07/01 01:22:51;;;;;;;18.23;17.23;;;;;;;-141.02;100.00;55844.97;5132755;28;20664;-75
2022/07/01 01:25:19;;;;;;;18.15;17.15;;;;;;;-141.02;100.00;55844.97;5132446;28;20621;-76
2022/07/01 01:27:46;;;;;;;17.80;16.80;;;;;;;-141.02;100.00;55844.97;5132770;28;20238;-73
2022/07/01 01:30:13;;;;;;;18.20;17.20;;;;;;;-141.02;100.00;55844.97;5132692;28;20296;-77
2022/07/01 01:32:41;;;;;;;18.15;17.15;;;;;;;-141.02;100.00;55844.97;5132352;28;20224;-76
2022/07/01 01:35:09;;;;;;;18.45;17.35;;;;;;;-141.02;100.00;55844.97;5132860;27;20279;-74
2022/07/01 01:37:36;;;;;;;18.30;17.25;;;;;;;-141.02;100.00;55844.97;5136245;27;20226;-77
2022/07/01 01:40:10;;;;;;;18.40;17.30;;;;;;;-141.02;100.00;55844.97;5136112;27;20567;-73
2022/07/01 01:42:37;;;;;;;18.48;17.38;;;;;;;-141.02;100.00;55844.97;5136031;27;20566;-76
2022/07/01 01:45:05;;;;;;;18.35;17.25;;;;;;;-141.02;100.00;55844.97;5135984;27;20197;-75
2022/07/01 01:47:32;;;;;;;18.02;17.00;;;;;;;-141.02;100.00;55844.97;5136207;27;20245;-77
2022/07/01 01:49:59;;;;;;;18.35;17.25;;;;;;;-141.02;100.00;55844.97;5136202;27;20193;-76
2022/07/01 01:52:26;;;;;;;17.80;16.80;;;;;;;-141.02;100.00;55844.97;5135986;27;20227;-76
2022/07/01 01:54:53;;;;;;;17.58;16.58;;;;;;;-141.02;100.00;55844.97;5136150;27;20305;-76
2022/07/01 01:57:22;;;;;;;17.70;16.70;;;;;;;-141.02;100.00;55844.97;5135719;27;20263;-76
2022/07/01 01:59:49;;;;;;;17.48;16.58;;;;;;;-141.02;100.00;55844.97;5135953;27;20296;-76
2022/07/01 02:02:16;;;;;;;17.20;16.30;;;;;;;-141.02;100.00;55844.97;5135948;27;20241;-76
2022/07/01 02:04:43;;;;;;;17.10;16.20;;;;;;;-141.02;100.00;55844.97;5135795;27;20253;-76
2022/07/01 02:07:11;;;;;;;17.13;16.23;;;;;;;-141.02;100.00;55844.97;5135875;27;20188;-76
2022/07/01 02:09:38;;;;;;;16.75;15.95;;;;;;;-141.02;100.00;55844.97;5135409;27;20601;-76
2022/07/01 02:12:05;;;;;;;16.90;16.10;;;;;;;-141.02;100.00;55844.97;5135413;27;20315;-76
2022/07/01 02:14:34;;;;;;;16.45;15.65;;;;;;;-141.02;100.00;55844.97;5135699;27;20201;-76
2022/07/01 02:17:01;;;;;;;16.52;15.75;;;;;;;-141.02;100.00;55844.97;5135343;27;20237;-77
2022/07/01 02:19:28;;;;;;;16.30;15.60;;;;;;;-141.02;100.00;55844.97;5135634;27;20196;-77
2022/07/01 02:21:55;;;;;;;16.20;15.50;;;;;;;-141.02;100.00;55844.97;5135218;27;20221;-77
2022/07/01 02:24:22;;;;;;;16.25;15.55;;;;;;;-141.02;100.00;55844.97;5135565;27;20200;-77
2022/07/01 02:26:49;;;;;;;16.05;15.35;;;;;;;-141.02;100.00;55844.97;5135448;27;20236;-77
2022/07/01 02:29:16;;;;;;;16.00;15.30;;;;;;;-141.02;100.00;55844.97;5135419;27;20236;-77
2022/07/01 02:31:44;;;;;;;16.05;15.35;;;;;;;-141.02;100.00;55844.97;5135305;27;20677;-76
2022/07/01 02:34:11;;;;;;;16.25;15.55;;;;;;;-141.02;100.00;55844.97;5134995;27;20188;-77
2022/07/01 02:36:38;;;;;;;15.98;15.27;;;;;;;-141.02;100.00;55844.97;5135266;27;20221;-77
2022/07/01 02:39:05;;;;;;;16.20;15.50;;;;;;;-141.02;100.00;55844.97;5134662;27;20327;-77
2022/07/01 02:42:22;;;;;;;15.95;15.25;;;;;;;-141.02;100.00;55844.97;5134893;27;20200;-77
2022/07/01 02:44:19;;;;;;;16.10;15.40;;;;;;;-141.02;100.00;55844.97;5134657;27;20195;-77
2022/07/01 02:46:48;;;;;;;15.75;15.10;;;;;;;-141.02;100.00;55844.97;5134788;27;20287;-76
2022/07/01 02:49:16;;;;;;;15.85;15.15;;;;;;;-141.02;100.00;55844.97;5135016;27;20192;-77
2022/07/01 02:51:43;;;;;;;15.88;15.18;;;;;;;-141.02;100.00;55844.97;5135429;27;20224;-77
2022/07/01 02:54:10;;;;;;;15.52;14.93;;;;;;;-141.02;100.00;55844.97;5134668;27;20235;-76
2022/07/01 02:56:37;;;;;;;15.80;15.10;;;;;;;-141.02;100.00;55844.97;5134506;27;20241;-77
2022/07/01 02:59:04;;;;;;;15.43;14.82;;;;;;;-141.02;100.00;55844.97;5134553;27;20279;-77
2022/07/01 03:01:31;;;;;;;15.50;14.90;;;;;;;-141.02;100.00;55844.97;5134691;27;20279;-76
2022/07/01 03:03:59;;;;;;;15.50;14.90;;;;;;;-141.02;100.00;55844.97;5134428;27;20224;-77
2022/07/01 03:06:27;;;;;;;15.38;14.77;;;;;;;-141.02;100.00;55844.97;5134650;27;20551;-77
2022/07/01 03:08:55;;;;;;;16.00;15.30;;;;;;;-141.02;100.00;55844.97;5134335;27;20729;-77
2022/07/01 03:11:22;;;;;;;16.10;15.40;;;;;;;-141.02;100.00;55844.97;5134934;27;20557;-77
2022/07/01 03:13:49;;;;;;;16.25;15.55;;;;;;;-141.02;100.00;55844.97;5134494;27;20275;-77
2022/07/01 03:16:16;;;;;;;15.73;15.13;;;;;;;-141.02;100.00;55844.97;5134483;27;20252;-77
2022/07/01 03:18:43;;;;;;;16.10;15.40;;;;;;;-141.02;100.00;55844.97;5134339;27;20192;-77
2022/07/01 03:21:12;;;;;;;16.17;15.48;;;;;;;-141.02;100.00;55844.97;5134088;27;20239;-76
2022/07/01 03:23:39;;;;;;;16.00;15.30;;;;;;;-141.02;100.00;55844.97;5134063;27;20681;-76
2022/07/01 03:26:06;;;;;;;16.10;15.40;;;;;;;-141.02;100.00;55844.97;5134310;27;20191;-77
2022/07/01 03:28:34;;;;;;;16.42;15.73;;;;;;;-141.02;100.00;55844.97;5134254;27;20203;-76
2022/07/01 03:31:01;;;;;;;16.02;15.32;;;;;;;-141.02;100.00;55844.97;5134152;27;20208;-76
2022/07/01 03:33:28;;;;;;;16.15;15.45;;;;;;;-141.02;100.00;55844.97;5134147;27;20228;-76
2022/07/01 03:35:55;;;;;;;15.95;15.25;;;;;;;-141.02;100.00;55844.97;5134155;27;20245;-76
2022/07/01 03:38:23;;;;;;;16.92;16.13;;;;;;;-141.02;100.00;55844.97;5133737;27;20229;-77
2022/07/01 03:40:50;;;;;;;17.05;16.25;;;;;;;-141.02;100.00;55844.97;5134044;27;20625;-76
2022/07/01 03:43:17;;;;;;;17.45;16.65;;;;;;;-141.02;100.00;55844.97;5133638;27;20238;-76
2022/07/01 03:45:44;;;;;;;17.55;16.65;;;;;;;-141.02;100.00;55844.97;5133602;27;20203;-76
2022/07/01 03:48:12;;;;;;;17.77;16.88;;;;;;;-141.02;100.00;55844.97;5133870;27;20646;-76
2022/07/01 03:50:39;;;;;;;17.65;16.75;;;;;;;-141.02;100.00;55844.97;5133828;27;20192;-77
2022/07/01 03:55:52;;;;;;;17.77;16.85;;;;;;;-141.02;100.00;55844.97;5133659;27;20192;-77
2022/07/01 03:58:19;;;;;;;17.67;16.77;;;;;;;-141.02;100.00;55844.97;5133034;27;20192;-77
2022/07/01 04:00:46;;;;;;;18.30;17.30;;;;;;;-141.02;100.00;55844.97;5133674;27;20228;-77
2022/07/01 04:03:14;;;;;;;17.65;16.75;;;;;;;-141.02;100.00;55844.97;5133315;27;20654;-76
2022/07/01 04:05:41;;;;;;;17.48;16.58;;;;;;;-141.02;100.00;55844.97;5133568;27;20224;-77
2022/07/01 04:08:11;;;;;;;17.42;16.52;;;;;;;-141.02;100.00;55844.97;5134103;27;20279;-77
2022/07/01 04:10:39;;;;;;;17.42;16.52;;;;;;;-141.02;100.00;55844.97;5133171;27;20202;-77
2022/07/01 04:13:07;;;;;;;17.40;16.50;;;;;;;-141.02;100.00;55844.97;5133143;27;20236;-77
2022/07/01 04:15:34;;;;;;;17.25;16.35;;;;;;;-141.02;100.00;55844.97;5133447;27;20254;-77
2022/07/01 04:18:01;;;;;;;17.58;16.67;;;;;;;-141.02;100.00;55844.97;5133398;27;20270;-77
2022/07/01 04:20:28;;;;;;;17.42;16.52;;;;;;;-141.02;100.00;55844.97;5133382;27;20192;-77
2022/07/01 04:22:55;;;;;;;17.95;16.95;;;;;;;-141.02;100.00;55844.97;5133039;27;20192;-77
2022/07/01 04:25:22;;;;;;;17.92;16.92;;;;;;;-141.02;100.00;55844.97;5133021;27;20192;-77
2022/07/01 04:27:50;;;;;;;17.85;16.95;;;;;;;-141.02;100.00;55844.97;5132997;27;20288;-77
2022/07/01 04:30:18;;;;;;;18.17;17.17;;;;;;;-141.02;100.00;55844.97;5132978;27;20227;-77
2022/07/01 04:32:45;;;;;;;18.40;17.30;;;;;;;-141.02;100.00;55844.97;5132877;27;20712;-77
2022/07/01 04:35:14;;;;;;;18.73;17.63;;;;;;;-141.02;100.00;55844.97;5132897;28;20757;-77
2022/07/01 04:37:41;;;;;;;18.33;17.27;;;;;;;-141.02;100.00;55844.97;5132750;27;20224;-77
2022/07/01 04:40:09;;;;;;;18.67;17.58;;;;;;;-141.02;100.00;55844.97;5132862;28;20238;-77
2022/07/01 04:42:35;;;;;;;18.65;17.55;;;;;;;-141.02;100.00;55844.97;5133200;27;20192;-77
2022/07/01 04:45:02;;;;;;;18.63;17.52;;;;;;;-141.02;100.00;55844.97;5132838;28;20572;-77
2022/07/01 04:47:32;;;;;;;18.85;17.65;;;;;;;-141.02;100.00;55844.97;5133129;27;20248;-77
2022/07/01 04:50:01;;;;;;;19.15;17.95;;;;;;;-141.02;100.00;55844.97;5132768;28;20196;-77
2022/07/01 04:52:29;;;;;;;18.98;17.77;;;;;;;-141.02;100.00;55844.97;5132641;28;20220;-77
2022/07/01 04:54:56;;;;;;;18.95;17.75;;;;;;;-141.02;100.00;55844.97;5132802;28;20192;-76
2022/07/01 04:57:23;;;;;;;18.58;17.38;;;;;;;-141.02;100.00;55844.97;5133030;28;20196;-76
2022/07/01 04:59:50;;;;;;;18.95;17.75;;;;;;;-141.02;100.00;55844.97;5133054;28;20224;-76
2022/07/01 05:02:17;;;;;;;19.23;18.02;;;;;;;-141.02;100.00;55844.97;5132676;28;20718;-76
2022/07/01 05:04:45;;;;;;;18.65;17.45;;;;;;;-141.02;100.00;55844.97;5132975;27;20204;-76
2022/07/01 05:07:27;;;;;;;19.05;17.85;;;;;;;-141.02;100.00;55844.97;5132961;28;20196;-76
2022/07/01 05:09:55;;;;;;;19.25;18.05;;;;;;;-141.02;100.00;55844.97;5132834;27;20193;-76
2022/07/01 05:12:23;;;;;;;19.00;17.80;;;;;;;-141.02;100.00;55844.97;5136887;27;20260;-77
2022/07/01 05:14:50;;;;;;;19.50;18.30;;;;;;;-141.02;100.00;55844.97;5136584;27;20275;-76
2022/07/01 05:17:17;;;;;;;19.48;18.27;;;;;;;-141.02;100.00;55844.97;5136653;27;20188;-77
2022/07/01 05:22:29;;;;;;;19.10;17.90;;;;;;;-141.02;100.00;55844.97;5136873;27;20322;-76
2022/07/01 05:24:56;;;;;;;18.60;17.50;;;;;;;-141.02;100.00;55844.97;5136642;27;20227;-77
2022/07/01 05:27:24;;;;;;;19.25;18.05;;;;;;;-141.02;100.00;55844.97;5136661;27;20271;-76
2022/07/01 05:29:52;;;;;;;18.90;17.80;;;;;;;-141.02;100.00;55844.97;5136274;27;20196;-77
2022/07/01 05:32:19;;;;;;;19.50;18.30;;;;;;;-141.02;100.00;55844.97;5136511;27;20668;-77
2022/07/01 05:34:47;;;;;;;19.20;18.00;;;;;;;-141.02;100.00;55844.97;5136225;27;20222;-77
2022/07/01 05:37:16;;;;;;;19.30;18.10;;;;;;;-141.02;100.00;55844.97;5136095;27;20232;-77
2022/07/01 05:39:44;;;;;;;19.65;18.45;;;;;;;-141.02;100.00;55844.97;5135953;27;20323;-76
2022/07/01 05:42:10;;;;;;;19.20;18.00;;;;;;;-141.02;100.00;55844.97;5136000;27;20765;-76
2022/07/01 05:44:38;;;;;;;18.67;17.58;;;;;;;-141.02;100.00;55844.97;5136334;27;20192;-76
2022/07/01 05:47:05;;;;;;;18.80;17.70;;;;;;;-141.02;100.00;55844.97;5136279;27;20247;-76
2022/07/01 05:49:32;;;;;;;18.85;17.75;;;;;;;-141.02;100.00;55844.97;5136247;27;20279;-76
2022/07/01 05:52:01;;;;;;;19.83;18.63;;;;;;;-141.02;100.00;55844.97;5136217;27;20711;-75
2022/07/01 05:54:28;;;;;;;19.10;17.90;;;;;;;-141.02;100.00;55844.97;5135673;27;20574;-76
2022/07/01 05:56:55;;;;;;;18.65;17.55;;;;;;;-141.02;100.00;55844.97;5135768;27;20192;-77
2022/07/01 05:59:22;;;;;;;19.33;18.13;;;;;;;-141.02;100.00;55844.97;5135683;27;20197;-75
2022/07/01 06:01:50;;;;;;;19.33;18.13;;;;;;;-141.02;100.00;55844.97;5136275;27;20189;-75
2022/07/01 06:04:17;;;;;;;19.20;18.00;;;;;;;-141.02;100.00;55844.97;5135577;27;20203;-76
2022/07/01 06:06:45;;;;;;;19.38;18.17;;;;;;;-141.02;100.00;55844.97;5136664;27;20279;-76
2022/07/01 06:09:13;;;;;;;19.15;18.02;;;;;;;-141.02;100.00;55844.97;5135861;27;20220;-76
2022/07/01 06:11:40;;;;;;;19.10;18.00;;;;;;;-141.02;100.00;55844.97;5135451;27;20666;-76
2022/07/01 06:14:07;;;;;;;18.63;17.52;;;;;;;-141.02;100.00;55844.97;5135620;27;20563;-75
2022/07/01 06:16:34;;;;;;;19.33;18.13;;;;;;;-141.02;100.00;55844.97;5135671;27;20272;-76
2022/07/01 06:19:01;;;;;;;19.65;18.45;;;;;;;-141.02;100.00;55844.97;5135268;27;20569;-74
2022/07/01 06:21:28;;;;;;;19.30;18.20;;;;;;;-141.02;100.00;55844.97;5135210;27;20196;-75
2022/07/01 06:23:55;;;;;;;18.75;17.65;;;;;;;-141.02;100.00;55844.97;5135537;27;20201;-76
2022/07/01 06:26:24;;;;;;;20.33;19.08;;;;;;;-141.02;100.00;55844.97;5135261;27;20193;-76
2022/07/01 06:28:51;;;;;;;18.77;17.67;;;;;;;-141.02;100.00;55844.97;5135141;27;20193;-75
2022/07/01 06:31:18;;;;;;;18.95;17.80;;;;;;;-141.02;100.00;55844.97;5135142;27;20275;-75
2022/07/01 06:33:46;;;;;;;18.88;17.77;;;;;;;-141.02;100.00;55844.97;5135339;27;20220;-75
2022/07/01 06:36:14;;;;;;;19.05;17.95;;;;;;;-141.02;100.00;55844.97;5134985;27;20749;-75
2022/07/01 06:38:41;;;;;;;19.27;18.13;;;;;;;-141.02;100.00;55844.97;5134775;27;20224;-75
2022/07/01 06:43:54;;;;;;;18.88;17.77;;;;;;;-141.02;100.00;55844.97;5135050;27;20281;-77
2022/07/01 06:46:21;;;;;;;19.48;18.27;;;;;;;-141.02;100.00;55844.97;5134775;27;20196;-76
2022/07/01 06:48:48;;;;;;;19.58;18.38;;;;;;;-141.02;100.00;55844.97;5135132;27;20189;-75
2022/07/01 06:51:15;;;;;;;22.00;20.60;;;;;;;-141.02;100.00;55844.97;5135008;27;20249;-75
2022/07/01 06:53:44;;;;;;;19.65;18.45;;;;;;;-141.02;100.00;55844.97;5134585;27;20228;-76
2022/07/01 06:56:12;;;;;;;19.45;18.25;;;;;;;-141.02;100.00;55844.97;5134622;27;20193;-75
2022/07/01 06:58:39;;;;;;;19.90;18.70;;;;;;;-141.02;100.00;55844.97;5134826;27;20193;-75
2022/07/01 07:01:08;;;;;;;19.10;18.00;;;;;;;-141.02;100.00;55844.97;5134536;27;20196;-76
2022/07/01 07:03:35;;;;;;;19.75;18.55;;;;;;;-141.02;100.00;55844.97;5134483;27;20253;-75
2022/07/01 07:06:04;;;;;;;19.85;18.65;;;;;;;-141.02;100.00;55844.97;5134794;27;20230;-75
2022/07/01 07:08:32;;;;;;;20.38;19.17;;;;;;;-141.02;61.84;81768.44;5134665;27;20193;-76
2022/07/01 07:11:00;;;;;;;21.25;19.95;;;;;;;-141.02;100.00;55844.97;5134687;27;20228;-75
2022/07/01 07:13:27;;;;;;;20.45;19.25;;;;;;;-141.02;100.00;55844.97;5134278;27;20697;-75
2022/07/01 07:15:54;;;;;;;20.60;19.30;;;;;;;-141.02;100.00;55844.97;5134555;27;20227;-75
2022/07/01 07:18:23;;;;;;;19.50;18.30;;;;;;;-141.02;100.00;55844.97;5134166;27;20192;-74
2022/07/01 07:20:50;;;;;;;20.42;19.13;;;;;;;-141.02;100.00;55844.97;5134427;27;20200;-72
2022/07/01 07:23:17;;;;;;;20.35;19.05;;;;;;;-141.02;100.00;55844.97;5134041;27;20188;-75
2022/07/01 07:25:44;;;;;;;19.88;18.67;;;;;;;-141.02;100.00;55844.97;5133950;27;20674;-75
2022/07/01 07:28:11;;;;;;;20.17;18.88;;;;;;;-141.02;100.00;55844.97;5134313;27;20224;-76
2022/07/01 07:30:38;;;;;;;20.27;18.98;;;;;;;-141.02;100.00;55844.97;5134241;27;20224;-76
2022/07/01 07:33:05;;;;;;;20.00;18.70;;;;;;;-141.02;100.00;55844.97;5133353;27;20276;-75
2022/07/01 07:35:34;;;;;;;19.95;18.73;;;;;;;-141.02;100.00;55844.97;5134195;27;20197;-76
2022/07/01 07:38:01;;;;;;;20.05;18.75;;;;;;;-141.02;100.00;55844.97;5133539;27;20692;-76
2022/07/01 07:40:28;;;;;;;20.17;18.88;;;;;;;-141.02;100.00;55844.97;5134095;27;20680;-74
2022/07/01 07:42:55;;;;;;;19.95;18.65;;;;;;;-141.02;100.00;55844.97;5134000;27;20336;-75
2022/07/01 07:45:22;;;;;;;20.20;18.90;;;;;;;-141.02;100.00;55844.97;5133662;27;20253;-75
2022/07/01 07:47:51;;;;;;;19.67;18.38;;;;;;;-141.02;100.00;55844.97;5133664;27;20197;-76
2022/07/01 07:50:18;;;;;;;19.92;18.63;;;;;;;-141.02;100.00;55844.97;5133482;27;20196;-74
2022/07/01 07:52:46;;;;;;;20.48;19.17;;;;;;;-141.02;100.00;55844.97;5133884;27;20196;-76
2022/07/01 07:55:13;;;;;;;19.92;18.63;;;;;;;-141.02;100.00;55844.97;5133409;27;20264;-75
2022/07/01 07:57:42;;;;;;;19.85;18.55;;;;;;;-141.02;100.00;55844.97;5133455;27;20200;-75
2022/07/01 08:00:12;;;;;;;19.70;18.50;;;;;;;-141.02;100.00;55844.97;5133736;27;20253;-72
2022/07/01 08:02:40;;;;;;;19.90;18.60;;;;;;;-141.02;100.00;55844.97;5133627;27;20271;-75
2022/07/01 08:05:08;;;;;;;19.83;18.52;;;;;;;-141.02;100.00;55844.97;5133624;27;20235;-76
2022/07/01 08:07:37;;;;;;;20.08;18.77;;;;;;;-141.02;100.00;55844.97;5133276;27;20284;-76
2022/07/01 08:10:07;;;;;;;20.08;18.77;;;;;;;-141.02;100.00;55844.97;5133556;27;20199;-76
2022/07/01 08:12:34;;;;;;;20.05;18.75;;;;;;;-141.02;100.00;55844.97;5133198;27;20640;-75
2022/07/01 08:15:02;;;;;;;19.80;18.50;;;;;;;-141.02;100.00;55844.97;5133134;27;20316;-76
2022/07/01 08:17:29;;;;;;;19.92;18.63;;;;;;;-141.02;100.00;55844.97;5133524;27;20204;-77
2022/07/01 08:19:56;;;;;;;19.98;18.67;;;;;;;-141.02;100.00;55844.97;5133438;27;20654;-76
2022/07/01 08:22:23;;;;;;;19.83;18.52;;;;;;;-141.02;100.00;55844.97;5133121;27;20188;-75
2022/07/01 08:24:50;;;;;;;19.90;18.60;;;;;;;-141.02;100.00;55844.97;5133319;27;20275;-76
2022/07/01 08:27:19;;;;;;;19.98;18.67;;;;;;;-141.02;100.00;55844.97;5133361;27;20200;-75
2022/07/01 08:29:46;;;;;;;20.17;18.88;;;;;;;-141.02;100.00;55844.97;5133063;27;20249;-76
2022/07/01 08:32:13;;;;;;;20.20;18.90;;;;;;;-141.02;100.00;55844.97;5132967;27;20231;-76
2022/07/01 08:34:40;;;;;;;19.92;18.63;;;;;;;-141.02;100.00;55844.97;5132828;28;20230;-75
2022/07/01 08:37:07;;;;;;;19.90;18.60;;;;;;;-141.02;100.00;55844.97;5132796;28;20705;-75
2022/07/01 08:39:34;;;;;;;19.90;18.55;;;;;;;-141.02;100.00;55844.97;5132764;27;20229;-76
2022/07/01 08:42:02;;;;;;;19.98;18.67;;;;;;;-141.02;100.00;55844.97;5132898;27;20241;-76
2022/07/01 08:44:32;;;;;;;20.60;19.20;;;;;;;-141.02;100.00;55844.97;5134020;27;20231;-77
2022/07/01 08:46:59;;;;;;;21.15;19.80;;;;;;;-141.02;100.00;55844.97;5137473;27;20647;-76
2022/07/01 08:49:26;;;;;;;19.65;18.35;;;;;;;-141.02;100.00;55844.97;5137348;27;20280;-76
2022/07/01 08:51:53;;;;;;;21.20;19.70;;;;;;;-141.02;100.00;55844.97;5137335;27;20188;-74
2022/07/01 08:54:20;;;;;;;19.58;18.27;;;;;;;-141.02;100.00;55844.97;5137254;27;20259;-76
2022/07/01 08:56:47;;;;;;;21.25;19.85;;;;;;;-141.02;100.00;55844.97;5136923;27;20204;-76
2022/07/01 08:59:23;;;;;;;21.70;20.30;;;;;;;-141.02;100.00;55844.97;5137231;27;20271;-76
2022/07/01 09:01:58;;;;;;;21.20;19.80;;;;;;;-141.02;100.00;55844.97;5137290;27;20195;-75
2022/07/01 09:04:25;;;;;;;21.40;19.90;;;;;;;-141.02;100.00;55844.97;5136834;27;20662;-76
2022/07/01 09:06:58;;;;;;;21.10;19.60;;;;;;;-141.02;100.00;55844.97;5137139;27;20201;-74
2022/07/01 09:09:25;;;;;;;20.95;19.50;;;;;;;-141.02;100.00;55844.97;5136751;27;20613;-75
2022/07/01 09:11:54;;;;;;;21.52;20.02;;;;;;;-141.02;100.00;55844.97;5136689;27;20232;-74
2022/07/01 09:14:23;;;;;;;21.73;20.23;;;;;;;-141.02;100.00;55844.97;5136822;27;20228;-75
2022/07/01 09:16:52;;;;;;;20.90;19.50;;;;;;;-141.02;100.00;55844.97;5136588;27;20196;-75
2022/07/01 09:19:21;;;;;;;21.42;20.00;;;;;;;-141.02;100.00;55844.97;5136872;27;20218;-74
2022/07/01 09:21:50;;;;;;;21.20;19.70;;;;;;;-141.02;100.00;55844.97;5136743;27;20192;-73
2022/07/01 09:24:27;;;;;;;21.55;20.05;;;;;;;-141.02;100.00;55844.97;5136721;27;20203;-76
2022/07/01 09:26:56;;;;;;;20.58;19.17;;;;;;;-141.02;100.00;55844.97;5136296;27;20192;-76
2022/07/01 09:29:27;;;;;;;20.58;19.17;;;;;;;-141.02;100.00;55844.97;5136377;27;20244;-75
2022/07/01 09:31:54;;;;;;;20.73;19.33;;;;;;;-141.02;100.00;55844.97;5136291;27;20181;-76
2022/07/01 09:34:23;;;;;;;21.13;19.67;;;;;;;-141.02;100.00;55844.97;5136436;27;20280;-75
2022/07/01 09:36:54;;;;;;;21.40;19.90;;;;;;;-141.02;100.00;55844.97;5136479;27;20250;-73
2022/07/01 09:39:21;;;;;;;21.48;19.98;;;;;;;-141.02;100.00;55844.97;5135965;27;20228;-77
2022/07/01 09:41:49;;;;;;;21.95;20.45;;;;;;;-141.02;100.00;55844.97;5136063;27;20670;-77
2022/07/01 09:44:16;;;;;;;21.65;20.13;;;;;;;-141.02;100.00;55844.97;5135998;27;20284;-78
2022/07/01 09:47:00;;;;;;;21.50;20.00;;;;;;;-141.02;100.00;55844.97;5136356;27;20196;-75
2022/07/01 09:49:29;;;;;;;23.45;21.75;;;;;;;-141.02;100.00;55844.97;5134775;27;20284;-76
2022/07/01 09:51:56;;;;;;;23.17;21.58;;;;;;;-141.02;100.00;55844.97;5135940;27;20239;-75
2022/07/01 09:54:23;;;;;;;24.58;22.88;;;;;;;-141.02;100.00;55844.97;5136003;27;20789;-74
2022/07/01 09:56:50;;;;;;;23.40;21.80;;;;;;;-141.02;100.00;55844.97;5135428;27;20237;-73
2022/07/01 09:59:17;;;;;;;22.25;20.67;;;;;;;-141.02;100.00;55844.97;5135721;27;20189;-73
2022/07/01 10:01:45;;;;;;;21.75;20.15;;;;;;;-141.02;100.00;55844.97;5135737;27;20319;-76
2022/07/01 10:04:15;;;;;;;22.10;20.50;;;;;;;-141.02;100.00;55844.97;5135966;27;20192;-73
2022/07/01 10:07:11;;;;;;;22.60;21.00;;;;;;;-141.02;100.00;55844.97;5135589;27;20570;-75
2022/07/01 10:10:09;;;;;;;20.65;19.15;;;;;;;-141.02;100.00;55844.97;5135560;27;20193;-73
2022/07/01 10:12:41;;;;;;;22.33;20.73;;;;;;;-141.02;100.00;55844.97;5135216;27;20249;-75
2022/07/01 10:15:12;;;;;;;22.55;20.85;;;;;;;-141.02;100.00;55844.97;5135713;27;20259;-74
2022/07/01 10:17:43;;;;;;;21.40;19.80;;;;;;;-141.02;100.00;55844.97;5135428;27;20276;-74
2022/07/01 10:20:13;;;;;;;21.65;20.05;;;;;;;-141.02;100.00;55844.97;5135768;27;20635;-71
2022/07/01 10:22:43;;;;;;;21.65;20.05;;;;;;;-141.02;100.00;55844.97;5135269;27;20692;-75
2022/07/01 10:25:32;;;;;;;21.88;20.27;;;;;;;-141.02;100.00;55844.97;5135251;27;20607;-75
2022/07/01 10:28:22;;;;;;;21.85;20.15;;;;;;;-141.02;100.00;55844.97;5135430;27;20321;-75
2022/07/01 10:30:51;;;;;;;21.80;20.20;;;;;;;-141.02;100.00;55844.97;5135525;27;20653;-73
2022/07/01 10:33:40;;;;;;;21.80;20.20;;;;;;;-141.02;100.00;55844.97;5135081;27;20688;-75
2022/07/01 10:36:09;;;;;;;23.20;21.50;;;;;;;-141.02;100.00;55844.97;5135058;27;20707;-76
2022/07/01 10:39:13;;;;;;;22.75;21.05;;;;;;;-141.02;100.00;55844.97;5134960;27;20231;-75
2022/07/01 10:41:43;;;;;;;22.67;20.98;;;;;;;-141.02;100.00;55844.97;5134934;27;20199;-77
2022/07/01 10:44:12;;;;;;;22.10;20.40;;;;;;;-141.02;100.00;55844.97;5134872;27;20210;-71
2022/07/01 10:46:43;;;;;;;22.05;20.45;;;;;;;-141.02;100.00;55844.97;5135236;27;20195;-76
2022/07/01 10:49:12;;;;;;;21.88;20.27;;;;;;;-141.02;100.00;55844.97;5134773;27;20779;-74
2022/07/01 10:51:46;;;;;;;21.70;20.10;;;;;;;-141.02;100.00;55844.97;5135075;27;20192;-74
2022/07/01 10:54:35;;;;;;;21.90;20.30;;;;;;;-141.02;100.00;55844.97;5134973;27;20203;-75
2022/07/01 10:57:26;;;;;;;22.00;20.40;;;;;;;-141.02;100.00;55844.97;5134631;27;20689;-73
2022/07/01 10:59:56;;;;;;;22.00;20.40;;;;;;;-141.02;100.00;55844.97;5134917;27;20275;-75
2022/07/01 11:02:25;;;;;;;21.63;20.02;;;;;;;-141.02;100.00;55844.97;5134785;27;20223;-76
2022/07/01 11:04:54;;;;;;;21.58;19.98;;;;;;;-141.02;100.00;55844.97;5134839;27;20282;-76
2022/07/01 11:07:21;;;;;;;22.23;20.58;;;;;;;-141.02;100.00;55844.97;5134198;27;20188;-75
2022/07/01 11:09:50;;;;;;;21.98;20.27;;;;;;;-141.02;100.00;55844.97;5134164;27;20196;-74